Airfield :
LOGIN :

Register | Disclaimer

   EN    FR    IT 

 










Legend :    VFR   Marginal VFR   IFR   Intensive IFR   Very Intensive IFR
Visi :
Ceiling :
>= 8 km
>= 3000ft
5 to 8 km
1000 to 3000 ft
1500m to 5 km
500 to 1000 ft
800 to 1500m
200 to 500 ft
< 800m
< 200 ft
Symbols :   Thunderstorms  Fog  Heavy snow  Heavy precipitations  Wind > 20 kt
SIGMETs :     Misc.  Thunderstorms  Icing  Turbulence  Mountain Waves  Volcanic Ashes







- Airport Elevation : 83 ft
- IATA code : LHR
- Download approach charts


EGLL - London Heathrow

CURRENT METAR :
  • 300050Z 23008KT 9999 BKN010 17/15 Q1012 NOSIG

EXPIRED METARs :
  • 300020Z AUTO 23007KT 9999 BKN008 17/15 Q1012 BECMG SCT008 BKN012
  • 292350Z 23007KT 9999 SCT010 BKN013 17/15 Q1012 NOSIG
  • 292320Z 23009KT 9999 BKN014 17/15 Q1012 TEMPO SCT014 BKN016
  • 292250Z 23009KT 9999 BKN012 17/16 Q1012
  • 292220Z 23009KT 9999 SCT020 BKN029 17/16 Q1012 NOSIG

TAF TAF EGLL
Valid from the 30 at 00:00 until the 31 at 06:00 UTC


292257Z 3000/3106 24010KT 9999 FEW012 SCT030
TEMPO 3000/3006 8000 BKN012
BECMG 3023/3102 VRB03KT
PROB30 3102/3106 8000
No reported NOTAMs for that airfield.



MET'MAP, your aeronautical weather chart ! - Copyright ORBIFLY December 2007 - Disclaimer

ORBIFLY MET'MAP TEAM :

Programming & Development : Alexandra Zaïnal
Concept & Development : Baudouin d'Aumeries
Co-Development & Prog : Marc-Olivier Méhu
Technical & hardware support : Manuel Goepfert

Contact : metmap@orbifly.com




SOURCES & CREDITS :

   NOAA